Time;durP1;ratioP1;P1;durP2;ratioP2;P2;SDS_P1;SDS_P2;PMS_P1;PMS_P2;Temp;Humidity;BMP_temperature;BMP_pressure;BME280_temperature;BME280_humidity;BME280_pressure;Samples;Min_cycle;Max_cycle;Signal;HPM_P1;HPM_P2
2022/11/09 00:01:15;;;;;;;10.93;1.60;;;15.50;99.90;;;;;;4116246;28;20177;-88
2022/11/09 00:03:16;;;;;;;9.82;1.63;;;15.50;99.90;;;;;;4132156;28;20658;-88
2022/11/09 00:05:16;;;;;;;7.85;1.30;;;15.60;99.90;;;;;;4115988;28;20177;-88
2022/11/09 00:07:17;;;;;;;7.68;1.42;;;15.50;99.90;;;;;;4131891;28;20185;-88
2022/11/09 00:09:18;;;;;;;9.80;1.58;;;15.50;99.90;;;;;;4132048;28;20538;-87
2022/11/09 00:11:19;;;;;;;7.95;1.80;;;15.60;99.90;;;;;;4132126;28;20229;-87
2022/11/09 00:13:20;;;;;;;10.20;1.60;;;15.50;99.90;;;;;;4115934;28;20685;-87
2022/11/09 00:15:21;;;;;;;7.63;1.35;;;15.30;99.90;;;;;;4115891;28;20264;-88
2022/11/09 00:17:22;;;;;;;12.75;1.67;;;15.30;99.90;;;;;;4132257;28;20181;-88
2022/11/09 00:19:23;;;;;;;7.63;1.38;;;15.30;99.90;;;;;;4115918;28;20260;-87
2022/11/09 00:21:25;;;;;;;6.70;1.20;;;15.30;99.90;;;;;;4116148;28;20220;-87
2022/11/09 00:23:25;;;;;;;10.63;1.38;;;15.30;99.90;;;;;;4132221;28;20223;-89
2022/11/09 00:25:26;;;;;;;8.50;1.58;;;15.30;99.90;;;;;;4131915;28;20170;-87
2022/11/09 00:27:27;;;;;;;9.98;1.70;;;15.30;99.90;;;;;;4115948;28;20188;-87
2022/11/09 00:29:27;;;;;;;11.68;1.58;;;15.30;99.90;;;;;;4099993;28;20167;-87
2022/11/09 00:31:28;;;;;;;10.18;1.67;;;15.10;99.90;;;;;;4099890;28;20186;-88
2022/11/09 00:33:29;;;;;;;6.93;1.77;;;15.00;99.90;;;;;;4099897;28;20246;-88
2022/11/09 00:35:30;;;;;;;15.85;1.70;;;14.90;99.90;;;;;;4115826;28;20253;-88
2022/11/09 00:37:31;;;;;;;6.43;1.42;;;14.70;99.90;;;;;;4132005;28;20778;-87
2022/11/09 00:39:31;;;;;;;8.65;1.40;;;14.70;99.90;;;;;;4132159;28;20228;-89
2022/11/09 00:41:32;;;;;;;8.05;1.70;;;14.60;99.90;;;;;;4115996;28;20262;-88
2022/11/09 00:43:33;;;;;;;12.00;2.15;;;14.80;99.90;;;;;;4131902;28;20193;-88
2022/11/09 00:45:34;;;;;;;9.40;1.50;;;14.60;99.90;;;;;;4115830;28;20298;-88
2022/11/09 00:47:36;;;;;;;11.02;1.90;;;14.50;99.90;;;;;;4131873;28;20284;-89
2022/11/09 00:49:37;;;;;;;10.70;1.63;;;14.50;99.90;;;;;;4115925;28;20178;-88
2022/11/09 00:51:37;;;;;;;10.20;1.48;;;14.60;99.90;;;;;;4131935;28;20244;-88
2022/11/09 00:53:38;;;;;;;10.60;1.58;;;14.60;99.90;;;;;;4115630;28;20198;-88
2022/11/09 00:55:39;;;;;;;11.68;1.83;;;14.40;99.90;;;;;;4099831;28;20210;-88
2022/11/09 00:57:40;;;;;;;12.07;1.85;;;14.60;99.90;;;;;;4103007;28;20222;-87
2022/11/09 00:59:41;;;;;;;14.27;2.13;;;14.50;99.90;;;;;;4102655;28;20645;-88
2022/11/09 01:01:41;;;;;;;10.57;1.67;;;14.50;99.90;;;;;;4102615;28;20170;-87
2022/11/09 01:03:45;;;;;;;10.35;1.35;;;14.60;99.90;;;;;;4102769;28;20191;-88
2022/11/09 01:05:46;;;;;;;11.73;1.63;;;14.40;99.90;;;;;;4118950;28;20639;-88
2022/11/09 01:07:47;;;;;;;9.20;1.63;;;14.30;99.90;;;;;;4118957;28;20178;-86
2022/11/09 01:09:48;;;;;;;12.75;1.65;;;14.30;99.90;;;;;;4118959;28;20261;-88
2022/11/09 01:11:49;;;;;;;10.13;1.45;;;14.40;99.90;;;;;;4102906;28;20186;-88
2022/11/09 01:13:50;;;;;;;10.18;1.48;;;14.50;99.90;;;;;;4118485;28;20190;-87
2022/11/09 01:15:52;;;;;;;9.63;1.70;;;14.40;99.90;;;;;;4102415;28;20242;-89
2022/11/09 01:17:53;;;;;;;14.18;1.55;;;14.30;99.90;;;;;;4118850;28;20190;-88
2022/11/09 01:19:53;;;;;;;11.77;1.90;;;14.30;99.90;;;;;;4118960;28;20175;-87
2022/11/09 01:21:56;;;;;;;7.60;1.40;;;14.20;99.90;;;;;;4118841;28;20189;-88
2022/11/09 01:23:57;;;;;;;12.18;1.70;;;14.20;99.90;;;;;;4118959;28;20579;-88
2022/11/09 01:26:05;;;;;;;8.25;1.50;;;14.20;99.90;;;;;;4118741;28;20202;-87
2022/11/09 01:28:06;;;;;;;10.52;1.35;;;14.30;99.90;;;;;;4118629;28;20174;-87
2022/11/09 01:30:08;;;;;;;10.43;1.42;;;14.30;99.90;;;;;;4118469;28;20177;-88
2022/11/09 01:32:09;;;;;;;17.65;1.50;;;14.40;99.90;;;;;;4134802;28;20223;-88
2022/11/09 01:34:10;;;;;;;6.72;1.63;;;14.40;99.90;;;;;;4118455;28;20189;-87
2022/11/09 01:36:19;;;;;;;18.10;2.15;;;14.40;99.90;;;;;;4118356;28;20214;-88
2022/11/09 01:38:20;;;;;;;10.88;1.75;;;14.60;99.90;;;;;;4118548;28;20180;-87
2022/11/09 01:40:21;;;;;;;12.68;2.13;;;14.50;99.90;;;;;;4134571;28;20173;-87
2022/11/09 01:42:23;;;;;;;8.50;1.60;;;14.40;99.90;;;;;;4118315;28;20174;-87
2022/11/09 01:44:31;;;;;;;13.85;1.67;;;14.50;99.90;;;;;;4118206;28;20185;-88
2022/11/09 01:46:41;;;;;;;10.70;1.52;;;14.40;99.90;;;;;;4118286;28;20268;-88
2022/11/09 01:48:50;;;;;;;10.48;1.67;;;14.50;99.90;;;;;;4118127;28;20167;-87
2022/11/09 01:50:57;;;;;;;9.45;1.58;;;14.30;99.90;;;;;;4118155;28;20174;-87
2022/11/09 01:53:01;;;;;;;12.70;1.52;;;14.30;99.90;;;;;;4118219;28;20202;-87
2022/11/09 01:55:08;;;;;;;11.88;1.73;;;14.40;99.90;;;;;;4118057;28;20194;-88
2022/11/09 01:57:14;;;;;;;12.48;1.90;;;14.60;99.90;;;;;;4118146;28;20236;-87
2022/11/09 01:59:19;;;;;;;15.05;1.98;;;14.60;99.90;;;;;;4117825;28;20212;-88
2022/11/09 02:01:20;;;;;;;13.73;1.90;;;14.60;99.90;;;;;;4117892;28;20575;-88
2022/11/09 02:03:28;;;;;;;12.40;1.60;;;14.40;99.90;;;;;;4118060;28;20213;-88
2022/11/09 02:05:33;;;;;;;12.63;1.60;;;14.40;99.90;;;;;;4118021;28;20177;-89
2022/11/09 02:07:36;;;;;;;12.07;1.92;;;14.30;99.90;;;;;;4117036;28;20233;-89
2022/11/09 02:09:40;;;;;;;11.77;1.48;;;14.30;99.90;;;;;;4101648;28;20217;-88
2022/11/09 02:11:40;;;;;;;18.92;2.17;;;14.30;99.90;;;;;;4117661;28;20229;-88
2022/11/09 02:13:45;;;;;;;8.63;2.03;;;14.30;99.90;;;;;;4133808;28;20245;-88
2022/11/09 02:15:48;;;;;;;9.32;1.52;;;14.40;99.90;;;;;;4117476;28;20648;-89
2022/11/09 02:17:52;;;;;;;12.50;1.33;;;14.30;99.90;;;;;;4117963;28;20603;-88
2022/11/09 02:19:55;;;;;;;8.65;1.70;;;14.20;99.90;;;;;;4118130;28;20202;-88
2022/11/09 02:21:56;;;;;;;7.53;1.63;;;14.20;99.90;;;;;;4118022;28;20174;-89
2022/11/09 02:23:59;;;;;;;11.30;1.83;;;14.30;99.90;;;;;;4101765;28;20202;-88
2022/11/09 02:26:08;;;;;;;11.30;1.80;;;14.30;99.90;;;;;;4117888;28;20170;-88
2022/11/09 02:28:09;;;;;;;7.82;1.60;;;14.20;99.90;;;;;;4117607;28;20626;-88
2022/11/09 02:30:12;;;;;;;11.60;1.60;;;14.20;99.90;;;;;;4133588;28;20169;-89
2022/11/09 02:32:22;;;;;;;12.80;1.90;;;14.30;99.90;;;;;;4133681;28;20180;-89
2022/11/09 02:34:25;;;;;;;8.65;1.50;;;14.30;99.90;;;;;;4117519;28;20170;-87
2022/11/09 02:36:25;;;;;;;8.45;1.30;;;14.40;99.90;;;;;;4101397;28;20796;-88
2022/11/09 02:38:26;;;;;;;11.52;2.15;;;14.40;99.90;;;;;;4101369;28;20195;-88
2022/11/09 02:40:33;;;;;;;10.20;1.95;;;14.30;99.90;;;;;;4101321;28;20194;-88
2022/11/09 02:42:34;;;;;;;11.88;1.77;;;14.40;99.90;;;;;;4101280;28;20763;-89
2022/11/09 02:44:39;;;;;;;15.38;2.08;;;14.40;99.90;;;;;;4133288;28;20530;-89
2022/11/09 02:46:41;;;;;;;12.52;2.08;;;14.40;99.90;;;;;;4117138;28;20206;-88
2022/11/09 02:48:42;;;;;;;13.05;1.45;;;14.50;99.90;;;;;;4101364;28;20186;-88
2022/11/09 02:50:43;;;;;;;15.20;1.95;;;14.60;99.90;;;;;;4117382;28;20178;-89
2022/11/09 02:52:43;;;;;;;12.73;1.73;;;14.30;99.90;;;;;;4101126;28;20596;-88
2022/11/09 02:54:45;;;;;;;11.90;1.90;;;14.30;99.90;;;;;;4100888;28;20203;-88
2022/11/09 02:56:46;;;;;;;12.32;1.75;;;14.20;99.90;;;;;;4116996;28;20181;-88
2022/11/09 02:58:46;;;;;;;15.85;2.17;;;14.20;99.90;;;;;;4133042;28;20176;-87
2022/11/09 03:00:47;;;;;;;14.25;1.58;;;14.20;99.90;;;;;;4116836;28;20190;-89
2022/11/09 03:02:49;;;;;;;12.85;1.95;;;14.20;99.90;;;;;;4101071;28;20191;-88
2022/11/09 03:04:49;;;;;;;13.82;1.95;;;14.10;99.90;;;;;;4101021;28;20210;-89
2022/11/09 03:06:50;;;;;;;13.48;1.95;;;14.10;99.90;;;;;;4117035;28;20206;-89
2022/11/09 03:08:52;;;;;;;16.00;1.80;;;14.10;99.90;;;;;;4132938;28;20220;-89
2022/11/09 03:10:58;;;;;;;13.65;2.13;;;14.10;99.90;;;;;;4116604;28;20631;-89
2022/11/09 03:12:59;;;;;;;11.35;1.73;;;14.20;99.90;;;;;;4116806;28;20211;-89
2022/11/09 03:15:02;;;;;;;15.45;1.90;;;14.10;99.90;;;;;;4132894;28;20201;-88
2022/11/09 03:17:03;;;;;;;14.50;2.22;;;14.20;99.90;;;;;;4116842;28;20190;-90
2022/11/09 03:19:04;;;;;;;13.63;1.95;;;14.10;99.90;;;;;;4132883;28;20257;-89
2022/11/09 03:21:06;;;;;;;15.93;1.70;;;14.00;99.90;;;;;;4116894;28;20289;-88
2022/11/09 03:23:07;;;;;;;13.75;2.00;;;13.90;99.90;;;;;;4132944;28;20193;-90
2022/11/09 03:25:09;;;;;;;12.90;1.98;;;14.10;99.90;;;;;;4133135;28;20178;-89
2022/11/09 03:27:10;;;;;;;10.13;1.75;;;14.10;99.90;;;;;;4116896;28;20178;-89
2022/11/09 03:29:10;;;;;;;12.90;1.90;;;14.20;99.90;;;;;;4116569;28;20174;-89
2022/11/09 03:31:12;;;;;;;16.05;2.13;;;14.10;99.90;;;;;;4116393;28;20170;-89
2022/11/09 03:33:13;;;;;;;12.88;1.70;;;14.00;99.90;;;;;;4116574;28;20257;-89
2022/11/09 03:35:15;;;;;;;14.43;2.00;;;14.00;99.90;;;;;;4116665;28;20602;-87
2022/11/09 03:37:15;;;;;;;11.80;1.65;;;13.90;99.90;;;;;;4100619;28;20182;-88
2022/11/09 03:39:17;;;;;;;11.65;1.63;;;13.80;99.90;;;;;;4100661;28;20548;-89
2022/11/09 03:41:17;;;;;;;13.30;2.03;;;13.80;99.90;;;;;;4116635;28;20178;-88
2022/11/09 03:43:18;;;;;;;9.68;1.60;;;13.90;99.90;;;;;;4132348;28;20196;-88
2022/11/09 03:45:20;;;;;;;13.25;1.88;;;13.80;99.90;;;;;;4132448;28;20237;-88
2022/11/09 03:47:20;;;;;;;15.35;1.92;;;13.60;99.90;;;;;;4100499;28;20171;-89
2022/11/09 03:49:22;;;;;;;13.90;2.00;;;13.50;99.90;;;;;;4116536;28;20174;-89
2022/11/09 03:51:23;;;;;;;12.95;1.55;;;13.60;99.90;;;;;;4116508;28;20188;-88
2022/11/09 03:53:24;;;;;;;16.77;2.22;;;13.70;99.90;;;;;;4116329;28;20221;-88
2022/11/09 03:55:25;;;;;;;13.82;1.88;;;13.60;99.90;;;;;;4116078;28;20634;-89
2022/11/09 03:57:26;;;;;;;19.08;1.60;;;13.50;99.90;;;;;;4100151;28;20167;-89
2022/11/09 03:59:27;;;;;;;13.02;2.08;;;13.50;99.90;;;;;;4132307;28;20186;-88
2022/11/09 04:01:27;;;;;;;16.80;1.90;;;13.40;99.90;;;;;;4116255;28;20196;-88
2022/11/09 04:03:28;;;;;;;15.25;2.05;;;13.40;99.90;;;;;;4132160;28;20197;-89
2022/11/09 04:05:29;;;;;;;8.68;1.95;;;13.30;99.90;;;;;;4116087;28;20679;-88
2022/11/09 04:07:30;;;;;;;13.32;2.05;;;13.30;99.90;;;;;;4131961;28;20176;-90
2022/11/09 04:09:30;;;;;;;13.63;1.70;;;13.30;99.90;;;;;;4116107;28;20185;-89
2022/11/09 04:11:31;;;;;;;16.70;2.10;;;13.30;99.90;;;;;;4131893;28;20180;-89
2022/11/09 04:13:32;;;;;;;10.63;1.80;;;13.30;99.90;;;;;;4115988;28;20193;-89
2022/11/09 04:15:32;;;;;;;11.90;1.60;;;13.20;99.90;;;;;;4131899;28;20236;-90
2022/11/09 04:17:33;;;;;;;9.18;1.73;;;13.50;99.90;;;;;;4132169;28;20182;-89
2022/11/09 04:19:34;;;;;;;15.50;2.15;;;13.50;99.90;;;;;;4132174;28;20181;-90
2022/11/09 04:21:35;;;;;;;8.32;1.75;;;13.40;99.90;;;;;;4116245;28;20194;-90
2022/11/09 04:23:35;;;;;;;11.65;1.70;;;13.40;99.90;;;;;;4116047;28;20221;-90
2022/11/09 04:25:38;;;;;;;14.63;1.63;;;13.30;99.90;;;;;;4099985;28;20166;-90
2022/11/09 04:27:39;;;;;;;13.93;1.80;;;13.40;99.90;;;;;;4115995;28;20675;-90
2022/11/09 04:29:40;;;;;;;15.80;3.55;;;13.30;99.90;;;;;;4115941;28;20269;-89
2022/11/09 04:31:41;;;;;;;15.35;1.75;;;13.20;99.90;;;;;;4115364;28;20213;-90
2022/11/09 04:33:41;;;;;;;12.80;2.08;;;13.20;99.90;;;;;;4115774;28;20555;-90
2022/11/09 04:35:42;;;;;;;11.15;1.70;;;13.20;99.90;;;;;;4100018;28;20207;-90
2022/11/09 04:37:43;;;;;;;12.07;1.55;;;13.20;99.90;;;;;;4099929;28;20235;-89
2022/11/09 04:39:44;;;;;;;12.70;2.20;;;13.20;99.90;;;;;;4100146;28;20234;-90
2022/11/09 04:41:44;;;;;;;16.45;1.77;;;13.30;99.90;;;;;;4099789;28;20167;-90
2022/11/09 04:43:45;;;;;;;14.23;1.80;;;13.20;99.90;;;;;;4100464;28;20226;-90
2022/11/09 04:45:46;;;;;;;10.95;1.88;;;13.10;99.90;;;;;;4100708;28;20207;-90
2022/11/09 04:47:47;;;;;;;11.32;1.65;;;13.20;99.90;;;;;;4115702;28;20185;-90
2022/11/09 04:49:48;;;;;;;11.93;1.95;;;13.30;99.90;;;;;;4115598;28;20643;-90
2022/11/09 04:51:48;;;;;;;11.68;1.48;;;13.40;99.90;;;;;;4131702;28;20170;-90
2022/11/09 04:53:49;;;;;;;11.48;1.60;;;13.40;99.90;;;;;;4115809;28;20205;-91
2022/11/09 04:55:50;;;;;;;10.63;2.40;;;13.30;99.90;;;;;;4131599;28;20236;-90
2022/11/09 04:57:50;;;;;;;16.15;1.90;;;13.30;99.90;;;;;;4131762;28;20515;-89
2022/11/09 04:59:51;;;;;;;15.73;1.90;;;13.20;99.90;;;;;;4131690;28;20237;-89
2022/11/09 05:01:52;;;;;;;14.02;1.88;;;13.20;99.90;;;;;;4131355;28;20166;-90
2022/11/09 05:03:52;;;;;;;18.50;2.40;;;13.10;99.90;;;;;;4133391;28;20208;-90
2022/11/09 05:05:53;;;;;;;15.82;2.10;;;13.10;99.90;;;;;;4115849;28;20174;-90
2022/11/09 05:07:54;;;;;;;16.80;2.38;;;13.10;99.90;;;;;;4099737;28;20179;-89
2022/11/09 05:09:55;;;;;;;25.15;2.30;;;13.10;99.90;;;;;;4099652;28;20171;-90
2022/11/09 05:11:55;;;;;;;16.33;2.25;;;13.10;99.90;;;;;;4131984;28;20710;-90
2022/11/09 05:13:56;;;;;;;16.50;1.98;;;13.00;99.90;;;;;;4133674;28;20201;-90
2022/11/09 05:16:00;;;;;;;13.55;2.30;;;13.00;99.90;;;;;;4115856;28;20277;-90
2022/11/09 05:18:00;;;;;;;15.18;2.42;;;13.00;99.90;;;;;;4115905;28;20179;-90
2022/11/09 05:20:01;;;;;;;15.40;1.92;;;12.90;99.90;;;;;;4099746;28;20171;-90
2022/11/09 05:24:21;;;;;;;15.13;2.53;;;12.90;99.90;;;;;;4115884;28;20276;-91
2022/11/09 05:26:22;;;;;;;17.45;1.83;;;12.90;99.90;;;;;;4131939;28;20169;-91
2022/11/09 05:28:23;;;;;;;15.00;1.80;;;12.90;99.90;;;;;;4117334;28;20699;-89
2022/11/09 05:30:24;;;;;;;10.88;2.00;;;12.80;99.90;;;;;;4099828;28;20246;-91
2022/11/09 05:32:24;;;;;;;14.55;1.63;;;12.80;99.90;;;;;;4099501;28;20207;-90
2022/11/09 05:34:25;;;;;;;13.65;1.65;;;12.70;99.90;;;;;;4099755;28;20211;-91
2022/11/09 05:36:27;;;;;;;16.92;1.92;;;12.70;99.90;;;;;;4099463;28;20221;-90
2022/11/09 05:38:28;;;;;;;18.30;1.75;;;12.70;99.90;;;;;;4099635;28;20242;-90
2022/11/09 05:40:28;;;;;;;14.50;1.92;;;12.80;99.90;;;;;;4115876;28;20178;-93
2022/11/09 05:42:29;;;;;;;14.45;1.92;;;12.80;99.90;;;;;;4131718;28;20708;-89
2022/11/09 05:44:30;;;;;;;15.70;2.10;;;12.80;99.90;;;;;;4134130;28;20173;-89
2022/11/09 05:46:32;;;;;;;12.18;2.00;;;12.90;99.90;;;;;;4118002;28;20252;-89
2022/11/09 05:48:33;;;;;;;8.27;1.98;;;12.90;99.90;;;;;;4119733;28;20185;-89
2022/11/09 05:50:34;;;;;;;9.02;2.00;;;12.90;99.90;;;;;;4102388;28;20179;-90
2022/11/09 05:52:49;;;;;;;15.05;1.98;;;13.00;99.90;;;;;;4103853;28;20198;-91
2022/11/09 05:54:50;;;;;;;17.30;2.53;;;13.00;99.90;;;;;;4117867;28;20312;-89
2022/11/09 05:56:51;;;;;;;10.60;2.15;;;13.00;99.90;;;;;;4117892;28;20535;-90
2022/11/09 05:58:51;;;;;;;14.65;1.83;;;13.00;99.90;;;;;;4118186;28;20178;-90
2022/11/09 06:00:52;;;;;;;15.32;1.92;;;12.80;99.90;;;;;;4102419;28;20544;-89
2022/11/09 06:02:54;;;;;;;11.50;1.90;;;12.90;99.90;;;;;;4101872;28;20203;-90
2022/11/09 06:04:55;;;;;;;15.23;1.80;;;12.90;99.90;;;;;;4118360;28;20162;-89
2022/11/09 06:06:56;;;;;;;16.92;2.13;;;12.90;99.90;;;;;;4134333;28;20714;-90
2022/11/09 06:08:56;;;;;;;14.15;2.10;;;12.90;99.90;;;;;;4133982;28;20178;-89
2022/11/09 06:11:06;;;;;;;9.95;1.83;;;12.90;99.90;;;;;;4117769;28;20638;-90
2022/11/09 06:13:07;;;;;;;12.73;1.70;;;12.80;99.90;;;;;;4117812;28;20236;-88
2022/11/09 06:15:08;;;;;;;11.85;1.70;;;12.90;99.90;;;;;;4133722;28;20213;-88
2022/11/09 06:17:09;;;;;;;15.48;2.10;;;13.00;99.90;;;;;;4133765;28;20244;-89
2022/11/09 06:19:09;;;;;;;11.68;1.95;;;13.00;99.90;;;;;;4117803;28;20178;-89
2022/11/09 06:21:10;;;;;;;14.13;1.63;;;13.00;99.90;;;;;;4117585;28;20174;-91
2022/11/09 06:23:11;;;;;;;12.18;1.98;;;12.90;99.90;;;;;;4117845;28;20186;-91
2022/11/09 06:25:12;;;;;;;11.93;1.58;;;12.90;99.90;;;;;;4117904;28;20213;-90
2022/11/09 06:27:12;;;;;;;15.50;1.90;;;12.90;99.90;;;;;;4101747;28;20262;-89
2022/11/09 06:29:13;;;;;;;12.35;2.42;;;12.80;99.90;;;;;;4117890;28;20179;-89
2022/11/09 06:31:15;;;;;;;13.07;2.03;;;12.80;99.90;;;;;;4102436;28;20171;-89
2022/11/09 06:33:16;;;;;;;12.15;2.08;;;12.80;99.90;;;;;;4117628;28;20197;-89
2022/11/09 06:35:17;;;;;;;14.10;2.10;;;12.70;99.90;;;;;;4133629;28;20260;-89
2022/11/09 06:37:17;;;;;;;11.45;1.55;;;12.70;99.90;;;;;;4117623;28;20233;-89
2022/11/09 06:39:18;;;;;;;12.60;1.77;;;12.50;99.90;;;;;;4117626;28;20175;-89
2022/11/09 06:41:19;;;;;;;9.57;1.55;;;12.60;99.90;;;;;;4101561;28;20266;-89
2022/11/09 06:43:20;;;;;;;11.98;1.67;;;12.70;99.90;;;;;;4101328;28;20672;-90
2022/11/09 06:45:21;;;;;;;11.27;1.73;;;12.70;99.90;;;;;;4117264;28;20653;-90
2022/11/09 06:47:21;;;;;;;10.98;1.60;;;12.60;99.90;;;;;;4101346;28;20175;-90
2022/11/09 06:49:22;;;;;;;16.17;1.83;;;12.60;99.90;;;;;;4101214;28;20290;-89
2022/11/09 06:51:23;;;;;;;12.65;1.77;;;12.50;99.90;;;;;;4133413;28;20654;-90
2022/11/09 06:53:26;;;;;;;12.77;1.60;;;12.60;99.90;;;;;;4117244;28;20194;-89
2022/11/09 06:55:28;;;;;;;19.25;2.05;;;12.60;99.90;;;;;;4117197;28;20216;-89
2022/11/09 06:57:29;;;;;;;14.70;2.10;;;12.60;99.90;;;;;;4117303;28;20270;-90
2022/11/09 06:59:30;;;;;;;9.23;1.83;;;12.70;99.90;;;;;;4117489;28;20205;-89
2022/11/09 07:01:32;;;;;;;15.13;2.40;;;12.70;99.90;;;;;;4117151;28;20204;-89
2022/11/09 07:03:33;;;;;;;14.02;1.83;;;12.70;99.90;;;;;;4117115;28;20559;-88
2022/11/09 07:05:38;;;;;;;14.32;2.03;;;12.60;99.90;;;;;;4117594;28;20201;-89
2022/11/09 07:07:39;;;;;;;12.85;1.77;;;12.70;99.90;;;;;;4117102;28;20185;-89
2022/11/09 07:09:39;;;;;;;14.57;1.83;;;12.70;99.90;;;;;;4134692;28;20615;-90
2022/11/09 07:11:40;;;;;;;11.80;1.55;;;12.70;99.90;;;;;;4117399;28;20174;-88
2022/11/09 07:13:41;;;;;;;11.60;1.70;;;12.70;99.90;;;;;;4134012;28;20231;-88
2022/11/09 07:15:42;;;;;;;13.10;1.88;;;12.70;99.90;;;;;;4121309;28;20240;-90
2022/11/09 07:17:42;;;;;;;16.98;1.60;;;12.80;99.90;;;;;;4118063;28;20178;-89
2022/11/09 07:19:43;;;;;;;12.48;1.70;;;12.80;99.90;;;;;;4134468;28;20170;-89
2022/11/09 07:21:44;;;;;;;19.10;2.53;;;12.70;99.90;;;;;;4102072;28;20232;-88
2022/11/09 07:23:46;;;;;;;12.60;2.00;;;12.70;99.90;;;;;;4133044;28;20209;-89
2022/11/09 07:25:47;;;;;;;10.95;1.60;;;12.70;99.90;;;;;;4118008;28;20170;-89
2022/11/09 07:27:48;;;;;;;14.15;1.80;;;12.70;99.90;;;;;;4101847;28;20175;-89
2022/11/09 07:29:48;;;;;;;13.23;1.73;;;12.70;99.90;;;;;;4117568;28;20167;-88
2022/11/09 07:31:49;;;;;;;12.15;1.98;;;12.70;99.90;;;;;;4133080;28;20177;-89
2022/11/09 07:33:50;;;;;;;11.15;1.42;;;12.80;99.90;;;;;;4117468;28;20190;-89
2022/11/09 07:35:51;;;;;;;11.73;1.80;;;12.90;99.90;;;;;;4116837;28;20206;-89
2022/11/09 07:37:52;;;;;;;10.38;1.52;;;12.90;99.90;;;;;;4100956;28;20270;-89
2022/11/09 07:39:52;;;;;;;11.45;1.48;;;12.80;99.90;;;;;;4117463;28;20197;-89
2022/11/09 07:41:54;;;;;;;8.25;1.63;;;12.80;99.90;;;;;;4118009;28;20181;-89
2022/11/09 07:43:54;;;;;;;13.75;1.88;;;12.90;99.90;;;;;;4117615;28;20190;-89
2022/11/09 07:45:56;;;;;;;8.63;1.40;;;13.00;99.90;;;;;;4133707;28;20182;-90
2022/11/09 07:48:01;;;;;;;10.90;2.03;;;12.80;99.90;;;;;;4117021;28;20188;-88
2022/11/09 07:50:03;;;;;;;8.02;1.30;;;12.70;99.90;;;;;;4116796;28;20264;-89
2022/11/09 07:52:04;;;;;;;15.18;1.90;;;12.80;99.90;;;;;;4116913;28;20332;-89
2022/11/09 07:54:05;;;;;;;13.25;1.67;;;12.90;99.90;;;;;;4100493;28;20163;-89
2022/11/09 07:56:06;;;;;;;9.35;1.45;;;13.10;99.90;;;;;;4116484;28;20766;-88
2022/11/09 07:58:14;;;;;;;17.85;1.75;;;13.20;99.90;;;;;;4116806;28;20185;-89
2022/11/09 08:00:15;;;;;;;14.32;1.65;;;13.40;99.90;;;;;;4116427;28;20200;-90
2022/11/09 08:02:16;;;;;;;11.95;1.52;;;13.60;99.90;;;;;;4116252;28;20555;-89
2022/11/09 08:04:17;;;;;;;9.07;1.25;;;13.80;99.90;;;;;;4116409;28;20170;-89
2022/11/09 08:06:21;;;;;;;9.57;1.50;;;14.00;99.90;;;;;;4132031;28;20169;-89
2022/11/09 08:08:21;;;;;;;12.50;1.63;;;14.10;99.90;;;;;;4117082;28;20174;-89
2022/11/09 08:10:23;;;;;;;16.98;2.33;;;14.10;99.90;;;;;;4132837;28;20176;-88
2022/11/09 08:12:24;;;;;;;8.38;1.40;;;14.20;99.90;;;;;;4116466;28;20184;-89
2022/11/09 08:14:24;;;;;;;9.32;1.50;;;14.10;99.90;;;;;;4132176;28;20209;-89
2022/11/09 08:16:25;;;;;;;11.82;1.80;;;14.00;99.90;;;;;;4116101;28;20304;-89
2022/11/09 08:18:26;;;;;;;8.80;1.50;;;14.00;99.90;;;;;;4132267;28;20216;-89
2022/11/09 08:20:28;;;;;;;14.55;2.28;;;13.80;99.90;;;;;;4132260;28;20180;-88
2022/11/09 08:22:28;;;;;;;10.63;1.48;;;13.70;99.90;;;;;;4132507;28;20193;-89
2022/11/09 08:24:29;;;;;;;12.30;1.83;;;13.60;99.90;;;;;;4132404;28;20165;-90
2022/11/09 08:26:31;;;;;;;12.77;1.88;;;13.70;99.90;;;;;;4132002;28;20177;-89
2022/11/09 08:28:33;;;;;;;15.52;1.80;;;14.00;99.90;;;;;;4116296;28;20264;-90
2022/11/09 08:30:34;;;;;;;9.68;1.55;;;14.10;99.90;;;;;;4116274;28;20182;-89
2022/11/09 08:32:34;;;;;;;6.03;1.45;;;14.20;99.90;;;;;;4116262;28;20190;-90
2022/11/09 08:34:35;;;;;;;11.73;1.58;;;14.00;99.90;;;;;;4132704;28;20180;-89
2022/11/09 08:36:36;;;;;;;14.13;1.92;;;13.90;99.90;;;;;;4132333;28;20766;-88
2022/11/09 08:38:37;;;;;;;12.85;1.75;;;13.70;99.90;;;;;;4116310;28;20170;-89
2022/11/09 08:40:39;;;;;;;6.57;1.70;;;13.80;99.90;;;;;;4116014;28;20201;-89
2022/11/09 08:42:39;;;;;;;11.20;1.50;;;13.60;99.90;;;;;;4116205;28;20224;-89
2022/11/09 08:44:40;;;;;;;14.93;2.03;;;13.60;99.90;;;;;;4100006;28;20183;-90
2022/11/09 08:46:41;;;;;;;11.68;1.55;;;13.60;99.90;;;;;;4100440;28;20235;-92
2022/11/09 08:48:41;;;;;;;13.35;1.70;;;13.60;99.90;;;;;;4100155;28;20174;-89
2022/11/09 08:50:42;;;;;;;7.82;1.33;;;13.80;99.90;;;;;;4101432;28;20183;-89
2022/11/09 08:52:43;;;;;;;12.07;1.70;;;13.70;99.90;;;;;;4115964;28;20241;-88
2022/11/09 08:54:44;;;;;;;17.30;2.10;;;13.70;99.90;;;;;;4132165;28;20228;-90
2022/11/09 08:56:45;;;;;;;13.68;1.92;;;13.70;99.90;;;;;;4132365;28;20174;-89
2022/11/09 08:58:46;;;;;;;11.32;1.40;;;13.90;99.90;;;;;;4115861;28;20670;-89
2022/11/09 09:00:47;;;;;;;12.73;1.70;;;14.00;99.90;;;;;;4132074;28;20177;-89
2022/11/09 09:02:47;;;;;;;10.07;1.40;;;14.20;99.90;;;;;;4115927;28;20242;-89
2022/11/09 09:04:48;;;;;;;11.10;1.30;;;14.20;99.90;;;;;;4099981;28;20183;-89
2022/11/09 09:06:49;;;;;;;16.25;1.95;;;14.20;99.90;;;;;;4100022;28;20627;-89
2022/11/09 09:08:50;;;;;;;18.13;1.80;;;14.00;99.90;;;;;;4099929;29;20183;-89
2022/11/09 09:10:50;;;;;;;11.68;1.67;;;14.10;99.90;;;;;;4116022;28;20730;-89
2022/11/09 09:12:52;;;;;;;11.45;1.23;;;14.10;99.90;;;;;;4116081;28;20222;-91
2022/11/09 09:14:52;;;;;;;13.00;1.40;;;14.20;99.90;;;;;;4115867;28;20174;-88
2022/11/09 09:16:53;;;;;;;16.20;1.73;;;14.40;99.90;;;;;;4133066;28;20259;-89
2022/11/09 09:18:54;;;;;;;14.80;1.70;;;14.50;99.90;;;;;;4120252;28;20261;-89
2022/11/09 09:20:54;;;;;;;9.88;1.35;;;14.30;99.90;;;;;;4135240;28;20217;-90
2022/11/09 09:22:58;;;;;;;10.45;1.50;;;14.10;99.90;;;;;;4118256;28;20254;-91
2022/11/09 09:24:59;;;;;;;10.35;1.25;;;14.00;99.90;;;;;;4118965;28;20174;-89
2022/11/09 09:27:00;;;;;;;13.25;1.40;;;14.00;99.90;;;;;;4119737;28;20224;-89
2022/11/09 09:29:01;;;;;;;10.25;1.50;;;14.10;99.90;;;;;;4135276;28;20697;-95
2022/11/09 09:31:01;;;;;;;10.27;1.40;;;14.10;99.90;;;;;;4119158;28;20170;-89
2022/11/09 09:33:02;;;;;;;13.93;1.95;;;14.10;99.90;;;;;;4136505;28;20201;-88
2022/11/09 09:35:03;;;;;;;8.55;1.17;;;14.10;99.90;;;;;;4120663;28;20175;-96
2022/11/09 09:37:05;;;;;;;12.75;1.50;;;14.20;99.90;;;;;;4120547;28;20174;-90
2022/11/09 09:39:06;;;;;;;11.55;2.15;;;14.40;99.90;;;;;;4123152;28;20175;-88
2022/11/09 09:41:09;;;;;;;11.57;1.48;;;14.40;99.90;;;;;;4141484;28;20193;-89
2022/11/09 09:43:29;;;;;;;7.30;1.67;;;14.40;99.90;;;;;;4125932;28;20648;-89
2022/11/09 09:45:38;;;;;;;13.00;1.50;;;14.30;99.90;;;;;;4145340;28;20173;-89
2022/11/09 09:48:08;;;;;;;16.88;1.65;;;14.40;99.90;;;;;;4118961;28;20635;-89
2022/11/09 09:50:19;;;;;;;11.73;1.60;;;14.40;99.90;;;;;;4129691;28;20189;-88
2022/11/09 09:52:28;;;;;;;11.68;1.50;;;14.20;99.90;;;;;;4118454;28;20174;-88
2022/11/09 09:54:38;;;;;;;13.38;3.17;;;14.50;99.90;;;;;;4119853;28;20173;-90
2022/11/09 09:56:44;;;;;;;11.88;2.03;;;14.40;99.90;;;;;;4118714;28;20281;-88
2022/11/09 09:59:04;;;;;;;17.40;2.88;;;14.40;99.90;;;;;;4118589;28;20178;-90
2022/11/09 10:01:15;;;;;;;10.23;1.73;;;14.40;99.90;;;;;;4134686;28;20251;-88
2022/11/09 10:03:19;;;;;;;14.63;1.95;;;14.40;99.90;;;;;;4118373;28;20703;-90
2022/11/09 10:05:27;;;;;;;10.70;1.48;;;14.50;99.90;;;;;;4117989;28;20182;-88
2022/11/09 10:07:37;;;;;;;8.57;1.63;;;14.60;99.90;;;;;;4118333;28;20204;-90
2022/11/09 10:10:06;;;;;;;16.40;1.75;;;14.60;99.90;;;;;;4118170;28;20224;-90
2022/11/09 10:12:25;;;;;;;16.55;1.83;;;14.80;99.90;;;;;;4118016;28;20717;-90
2022/11/09 10:14:45;;;;;;;13.90;1.63;;;14.80;99.90;;;;;;4118262;28;20217;-90
2022/11/09 10:17:08;;;;;;;9.23;1.67;;;14.90;99.90;;;;;;4118803;28;20220;-90
2022/11/09 10:19:28;;;;;;;10.40;1.30;;;14.80;99.90;;;;;;4120716;28;20174;-90
2022/11/09 10:21:30;;;;;;;13.35;1.75;;;14.90;99.90;;;;;;4120589;28;20178;-95
2022/11/09 10:23:44;;;;;;;13.13;1.55;;;14.70;99.90;;;;;;4119397;28;20671;-90
2022/11/09 10:25:48;;;;;;;15.00;1.75;;;14.70;99.90;;;;;;4154140;28;20176;-89
2022/11/09 10:28:01;;;;;;;16.75;2.05;;;14.90;99.90;;;;;;4138781;28;20172;-95
2022/11/09 10:30:18;;;;;;;9.57;1.25;;;14.90;99.90;;;;;;4137406;28;20169;-96
2022/11/09 10:32:22;;;;;;;8.13;1.60;;;14.70;99.90;;;;;;4138417;28;20184;-92